Briefing drone pour Saint-jorioz

Rechercher une autre localisation

Conditions de vol :


Nous sommes le : Mercredi 07 décembre 2022
Il est 19:27 UTC (20:27 LT)

Lever de soleil : 06:36 UTC (07:36 LT)
Coucher de soleil : 16:16 UTC (17:16 LT)

Météo

L'essentiel des conditions de vol

VIGILANCE MÉTÉO FRANCE - Haute-Savoie (74)
Vigilance Jaune : Avalanches
METAR de LFLP
LFLP 071900Z AUTO VRB02KT 9999 OVC025 03/M01 Q1014 NOSIG

Date d'émission: 07/12/2022
Heure d'émission: 19:00 UTC
Vent: Variable 2 KT (4 km/h)
Visibilité horizontale: > 10 km
Plafond :
- Couvert à 2500ft (762m)
Température: 3 °C
Point de rosée: -1 °C
Humidité: 75%
Pression (QNH): 1014 hPa
Conditions: Pas de changement dans les 2 heures (NOSIG)
TAF de LFLP
AMD LFLP 071913Z 0719/0815 CNL

Conditions prévues :

Heure d'émission : Bulletin éffectué le 07 à 19:00 UTC
Prévision : Valide du 07 a 19:00 UTC au 08 a 15:00 UTC
Nuages : à 0ft (0 m)
WEBCAM POUR SAINT-JORIOZ

Réglementation

Voler en sécurité

CARTES AERONAUTIQUE 1/500.000
CARTE AZBA (Reseau basse altitude)
CARTES VAC (LFLP)
SUP AIP




Chargement des AIP...
NOTAM (SAINT-JORIOZ + Terrain à proximité / FIR )




Chargement des NOTAMS...
CONTACT PREFECTURE 74


Avertissement : Les données mises à disposition sont indicatives. Oxygène Drone ne pourra être tenu responsable de dégâts causés aux biens et aux personnes.